sensor_id;sensor_type;location;lat;lon;timestamp;P1;durP1;ratioP1;P2;durP2;ratioP2
13204;SDS011;6667;52.634;9.226;2022-09-01T04:30:24;1.63;;;0.87;;
13204;SDS011;6667;52.634;9.226;2022-09-01T04:32:57;2.53;;;1.00;;
13204;SDS011;6667;52.634;9.226;2022-09-01T04:35:24;1.80;;;1.00;;
13204;SDS011;6667;52.634;9.226;2022-09-01T04:37:56;2.10;;;1.10;;
13204;SDS011;6667;52.634;9.226;2022-09-01T04:40:23;1.47;;;1.10;;
13204;SDS011;6667;52.634;9.226;2022-09-01T04:42:51;1.90;;;1.20;;
13204;SDS011;6667;52.634;9.226;2022-09-01T04:45:17;1.93;;;1.40;;
13204;SDS011;6667;52.634;9.226;2022-09-01T04:47:50;1.30;;;1.20;;
13204;SDS011;6667;52.634;9.226;2022-09-01T04:50:17;1.53;;;1.10;;
13204;SDS011;6667;52.634;9.226;2022-09-01T04:52:46;2.87;;;1.47;;
13204;SDS011;6667;52.634;9.226;2022-09-01T04:55:13;2.40;;;1.27;;
13204;SDS011;6667;52.634;9.226;2022-09-01T04:57:42;2.43;;;1.23;;
13204;SDS011;6667;52.634;9.226;2022-09-01T05:00:12;1.37;;;1.13;;
13204;SDS011;6667;52.634;9.226;2022-09-01T05:02:46;1.03;;;1.03;;
13204;SDS011;6667;52.634;9.226;2022-09-01T05:05:17;1.17;;;1.03;;
13204;SDS011;6667;52.634;9.226;2022-09-01T05:07:44;1.93;;;1.33;;
13204;SDS011;6667;52.634;9.226;2022-09-01T05:10:12;2.93;;;1.40;;
13204;SDS011;6667;52.634;9.226;2022-09-01T05:12:39;2.40;;;1.50;;
13204;SDS011;6667;52.634;9.226;2022-09-01T05:15:10;3.50;;;1.10;;
13204;SDS011;6667;52.634;9.226;2022-09-01T05:17:37;1.63;;;1.37;;
13204;SDS011;6667;52.634;9.226;2022-09-01T05:20:04;5.03;;;2.10;;
13204;SDS011;6667;52.634;9.226;2022-09-01T05:22:34;1.13;;;1.10;;
13204;SDS011;6667;52.634;9.226;2022-09-01T05:25:06;3.23;;;1.40;;
13204;SDS011;6667;52.634;9.226;2022-09-01T05:27:37;1.90;;;1.20;;
13204;SDS011;6667;52.634;9.226;2022-09-01T05:30:05;2.10;;;1.30;;
13204;SDS011;6667;52.634;9.226;2022-09-01T05:32:33;5.00;;;1.37;;
13204;SDS011;6667;52.634;9.226;2022-09-01T05:35:01;7.33;;;1.47;;
13204;SDS011;6667;52.634;9.226;2022-09-01T05:37:30;4.30;;;1.40;;
13204;SDS011;6667;52.634;9.226;2022-09-01T05:39:59;1.87;;;1.73;;
13204;SDS011;6667;52.634;9.226;2022-09-01T05:42:26;4.83;;;1.33;;
13204;SDS011;6667;52.634;9.226;2022-09-01T05:44:54;1.60;;;1.50;;
13204;SDS011;6667;52.634;9.226;2022-09-01T05:47:21;4.57;;;1.30;;
13204;SDS011;6667;52.634;9.226;2022-09-01T05:49:50;3.00;;;1.57;;
13204;SDS011;6667;52.634;9.226;2022-09-01T05:52:17;3.80;;;1.30;;
13204;SDS011;6667;52.634;9.226;2022-09-01T05:54:49;3.83;;;1.40;;
13204;SDS011;6667;52.634;9.226;2022-09-01T05:57:18;1.50;;;1.40;;
13204;SDS011;6667;52.634;9.226;2022-09-01T05:59:45;1.60;;;1.10;;
13204;SDS011;6667;52.634;9.226;2022-09-01T06:02:17;3.93;;;1.63;;
13204;SDS011;6667;52.634;9.226;2022-09-01T06:04:45;1.83;;;1.40;;
13204;SDS011;6667;52.634;9.226;2022-09-01T06:07:13;2.57;;;1.73;;
13204;SDS011;6667;52.634;9.226;2022-09-01T06:09:42;1.67;;;1.10;;
13204;SDS011;6667;52.634;9.226;2022-09-01T06:12:10;2.23;;;1.27;;
13204;SDS011;6667;52.634;9.226;2022-09-01T06:14:42;2.70;;;1.00;;
13204;SDS011;6667;52.634;9.226;2022-09-01T06:17:09;3.70;;;1.30;;
13204;SDS011;6667;52.634;9.226;2022-09-01T06:19:40;2.90;;;1.13;;
13204;SDS011;6667;52.634;9.226;2022-09-01T06:22:06;1.60;;;1.47;;
13204;SDS011;6667;52.634;9.226;2022-09-01T06:24:34;1.47;;;1.37;;
13204;SDS011;6667;52.634;9.226;2022-09-01T06:27:03;4.83;;;1.20;;
13204;SDS011;6667;52.634;9.226;2022-09-01T06:29:33;1.93;;;1.10;;
13204;SDS011;6667;52.634;9.226;2022-09-01T06:32:03;2.47;;;1.10;;
13204;SDS011;6667;52.634;9.226;2022-09-01T06:34:33;1.53;;;1.20;;
13204;SDS011;6667;52.634;9.226;2022-09-01T06:37:00;1.23;;;1.13;;
13204;SDS011;6667;52.634;9.226;2022-09-01T06:39:27;1.50;;;1.07;;
13204;SDS011;6667;52.634;9.226;2022-09-01T06:41:55;1.43;;;1.30;;
13204;SDS011;6667;52.634;9.226;2022-09-01T06:44:23;2.50;;;1.20;;
13204;SDS011;6667;52.634;9.226;2022-09-01T06:46:50;1.77;;;1.10;;
13204;SDS011;6667;52.634;9.226;2022-09-01T06:49:19;1.63;;;1.20;;
13204;SDS011;6667;52.634;9.226;2022-09-01T06:51:47;2.07;;;1.10;;
13204;SDS011;6667;52.634;9.226;2022-09-01T06:54:16;2.77;;;1.00;;
13204;SDS011;6667;52.634;9.226;2022-09-01T06:56:44;2.70;;;1.10;;
13204;SDS011;6667;52.634;9.226;2022-09-01T06:59:11;2.33;;;1.20;;
13204;SDS011;6667;52.634;9.226;2022-09-01T07:01:39;1.10;;;1.00;;
13204;SDS011;6667;52.634;9.226;2022-09-01T07:04:06;1.43;;;0.93;;
13204;SDS011;6667;52.634;9.226;2022-09-01T07:06:35;1.37;;;0.80;;
13204;SDS011;6667;52.634;9.226;2022-09-01T07:09:04;2.53;;;0.83;;
13204;SDS011;6667;52.634;9.226;2022-09-01T07:11:32;1.00;;;1.00;;
13204;SDS011;6667;52.634;9.226;2022-09-01T07:14:00;3.23;;;0.80;;
13204;SDS011;6667;52.634;9.226;2022-09-01T07:16:29;2.23;;;1.13;;
13204;SDS011;6667;52.634;9.226;2022-09-01T07:18:59;2.35;;;1.02;;
13204;SDS011;6667;52.634;9.226;2022-09-01T07:21:28;1.57;;;1.00;;
13204;SDS011;6667;52.634;9.226;2022-09-01T07:23:57;5.85;;;1.75;;
13204;SDS011;6667;52.634;9.226;2022-09-01T07:26:25;1.20;;;0.77;;
13204;SDS011;6667;52.634;9.226;2022-09-01T07:28:53;0.80;;;0.80;;
13204;SDS011;6667;52.634;9.226;2022-09-01T07:31:21;0.87;;;0.83;;
13204;SDS011;6667;52.634;9.226;2022-09-01T07:33:49;1.73;;;0.90;;
13204;SDS011;6667;52.634;9.226;2022-09-01T07:36:19;2.00;;;0.90;;
13204;SDS011;6667;52.634;9.226;2022-09-01T07:38:46;3.42;;;0.80;;
13204;SDS011;6667;52.634;9.226;2022-09-01T07:41:17;1.42;;;0.70;;
13204;SDS011;6667;52.634;9.226;2022-09-01T07:43:43;4.68;;;0.90;;
13204;SDS011;6667;52.634;9.226;2022-09-01T07:46:10;1.05;;;0.80;;
13204;SDS011;6667;52.634;9.226;2022-09-01T07:48:37;1.63;;;0.70;;
13204;SDS011;6667;52.634;9.226;2022-09-01T07:51:04;1.10;;;0.75;;
13204;SDS011;6667;52.634;9.226;2022-09-01T07:53:32;0.93;;;0.60;;
13204;SDS011;6667;52.634;9.226;2022-09-01T07:56:05;1.90;;;0.85;;
13204;SDS011;6667;52.634;9.226;2022-09-01T07:58:35;1.77;;;0.60;;
13204;SDS011;6667;52.634;9.226;2022-09-01T08:01:05;2.65;;;0.70;;
13204;SDS011;6667;52.634;9.226;2022-09-01T08:03:33;0.57;;;0.50;;
13204;SDS011;6667;52.634;9.226;2022-09-01T08:06:01;1.63;;;0.80;;
13204;SDS011;6667;52.634;9.226;2022-09-01T08:08:30;2.35;;;0.77;;
13204;SDS011;6667;52.634;9.226;2022-09-01T08:10:57;1.38;;;0.63;;
13204;SDS011;6667;52.634;9.226;2022-09-01T08:13:23;0.60;;;0.50;;
13204;SDS011;6667;52.634;9.226;2022-09-01T08:15:51;0.40;;;0.40;;
13204;SDS011;6667;52.634;9.226;2022-09-01T08:18:18;0.75;;;0.68;;
13204;SDS011;6667;52.634;9.226;2022-09-01T08:20:45;0.50;;;0.43;;
13204;SDS011;6667;52.634;9.226;2022-09-01T08:23:12;0.50;;;0.50;;
13204;SDS011;6667;52.634;9.226;2022-09-01T08:25:42;0.80;;;0.45;;
13204;SDS011;6667;52.634;9.226;2022-09-01T08:28:10;1.77;;;0.70;;
13204;SDS011;6667;52.634;9.226;2022-09-01T08:30:39;1.92;;;0.55;;
13204;SDS011;6667;52.634;9.226;2022-09-01T08:33:08;1.23;;;0.50;;
13204;SDS011;6667;52.634;9.226;2022-09-01T08:35:36;1.17;;;0.40;;
13204;SDS011;6667;52.634;9.226;2022-09-01T08:38:04;2.83;;;0.50;;
13204;SDS011;6667;52.634;9.226;2022-09-01T08:40:30;4.40;;;0.57;;
13204;SDS011;6667;52.634;9.226;2022-09-01T08:43:01;0.75;;;0.68;;
13204;SDS011;6667;52.634;9.226;2022-09-01T08:45:35;1.02;;;0.40;;
13204;SDS011;6667;52.634;9.226;2022-09-01T08:48:11;0.73;;;0.50;;
13204;SDS011;6667;52.634;9.226;2022-09-01T08:50:41;1.65;;;0.55;;
13204;SDS011;6667;52.634;9.226;2022-09-01T08:53:11;0.50;;;0.50;;
13204;SDS011;6667;52.634;9.226;2022-09-01T08:55:46;1.90;;;0.50;;
13204;SDS011;6667;52.634;9.226;2022-09-01T08:58:18;1.92;;;0.50;;
13204;SDS011;6667;52.634;9.226;2022-09-01T09:00:46;0.85;;;0.60;;
13204;SDS011;6667;52.634;9.226;2022-09-01T09:03:24;4.10;;;0.57;;
13204;SDS011;6667;52.634;9.226;2022-09-01T09:06:01;2.17;;;0.63;;
13204;SDS011;6667;52.634;9.226;2022-09-01T09:08:39;3.05;;;0.60;;
13204;SDS011;6667;52.634;9.226;2022-09-01T09:11:26;0.93;;;0.40;;
13204;SDS011;6667;52.634;9.226;2022-09-01T09:14:16;0.60;;;0.50;;
13204;SDS011;6667;52.634;9.226;2022-09-01T09:16:53;0.47;;;0.30;;
13204;SDS011;6667;52.634;9.226;2022-09-01T09:19:22;1.35;;;0.30;;
13204;SDS011;6667;52.634;9.226;2022-09-01T09:21:53;1.10;;;0.40;;
13204;SDS011;6667;52.634;9.226;2022-09-01T09:24:23;1.30;;;0.43;;
13204;SDS011;6667;52.634;9.226;2022-09-01T09:26:54;1.33;;;0.50;;
13204;SDS011;6667;52.634;9.226;2022-09-01T09:29:23;0.40;;;0.40;;
13204;SDS011;6667;52.634;9.226;2022-09-01T09:32:00;3.35;;;0.50;;
13204;SDS011;6667;52.634;9.226;2022-09-01T09:34:31;1.50;;;0.68;;
13204;SDS011;6667;52.634;9.226;2022-09-01T09:37:00;2.10;;;0.50;;
13204;SDS011;6667;52.634;9.226;2022-09-01T09:39:41;0.45;;;0.40;;
13204;SDS011;6667;52.634;9.226;2022-09-01T09:42:10;1.60;;;0.70;;
13204;SDS011;6667;52.634;9.226;2022-09-01T09:44:40;2.53;;;0.60;;
13204;SDS011;6667;52.634;9.226;2022-09-01T09:47:14;0.63;;;0.63;;
13204;SDS011;6667;52.634;9.226;2022-09-01T09:50:11;1.02;;;0.40;;
13204;SDS011;6667;52.634;9.226;2022-09-01T09:52:45;0.40;;;0.30;;
13204;SDS011;6667;52.634;9.226;2022-09-01T09:55:23;0.52;;;0.40;;
13204;SDS011;6667;52.634;9.226;2022-09-01T09:57:52;0.80;;;0.60;;
13204;SDS011;6667;52.634;9.226;2022-09-01T10:00:22;0.70;;;0.60;;
13204;SDS011;6667;52.634;9.226;2022-09-01T10:02:51;0.60;;;0.50;;
13204;SDS011;6667;52.634;9.226;2022-09-01T10:05:23;0.55;;;0.30;;
13204;SDS011;6667;52.634;9.226;2022-09-01T10:07:53;2.97;;;0.60;;
13204;SDS011;6667;52.634;9.226;2022-09-01T10:10:27;0.52;;;0.52;;
13204;SDS011;6667;52.634;9.226;2022-09-01T10:12:56;1.83;;;0.60;;
13204;SDS011;6667;52.634;9.226;2022-09-01T10:15:28;2.50;;;0.63;;
13204;SDS011;6667;52.634;9.226;2022-09-01T10:17:58;2.00;;;0.60;;
13204;SDS011;6667;52.634;9.226;2022-09-01T10:20:31;0.93;;;0.50;;
13204;SDS011;6667;52.634;9.226;2022-09-01T10:23:02;2.88;;;0.57;;
13204;SDS011;6667;52.634;9.226;2022-09-01T10:25:30;0.70;;;0.47;;
13204;SDS011;6667;52.634;9.226;2022-09-01T10:28:01;2.40;;;0.52;;
13204;SDS011;6667;52.634;9.226;2022-09-01T10:30:31;0.98;;;0.40;;
13204;SDS011;6667;52.634;9.226;2022-09-01T10:32:59;2.35;;;0.40;;
13204;SDS011;6667;52.634;9.226;2022-09-01T10:35:27;0.30;;;0.30;;
13204;SDS011;6667;52.634;9.226;2022-09-01T10:37:57;0.73;;;0.32;;
13204;SDS011;6667;52.634;9.226;2022-09-01T10:40:36;0.50;;;0.45;;
13204;SDS011;6667;52.634;9.226;2022-09-01T10:46:07;1.50;;;0.47;;
13204;SDS011;6667;52.634;9.226;2022-09-01T10:48:57;1.35;;;0.57;;
13204;SDS011;6667;52.634;9.226;2022-09-01T10:51:40;1.05;;;0.32;;
13204;SDS011;6667;52.634;9.226;2022-09-01T10:54:09;0.85;;;0.65;;
13204;SDS011;6667;52.634;9.226;2022-09-01T10:57:26;3.28;;;0.40;;
13204;SDS011;6667;52.634;9.226;2022-09-01T11:00:19;0.52;;;0.50;;
13204;SDS011;6667;52.634;9.226;2022-09-01T11:09:24;5.43;;;0.65;;
13204;SDS011;6667;52.634;9.226;2022-09-01T11:12:08;3.08;;;0.47;;
13204;SDS011;6667;52.634;9.226;2022-09-01T11:15:02;2.42;;;0.60;;
13204;SDS011;6667;52.634;9.226;2022-09-01T11:17:31;0.28;;;0.28;;
13204;SDS011;6667;52.634;9.226;2022-09-01T11:20:02;0.57;;;0.40;;
13204;SDS011;6667;52.634;9.226;2022-09-01T11:22:33;1.75;;;0.52;;
13204;SDS011;6667;52.634;9.226;2022-09-01T11:25:11;1.98;;;0.32;;
13204;SDS011;6667;52.634;9.226;2022-09-01T11:27:59;1.77;;;0.40;;
13204;SDS011;6667;52.634;9.226;2022-09-01T11:30:36;1.85;;;0.45;;
13204;SDS011;6667;52.634;9.226;2022-09-01T11:33:18;0.57;;;0.57;;
13204;SDS011;6667;52.634;9.226;2022-09-01T11:35:58;0.40;;;0.40;;
13204;SDS011;6667;52.634;9.226;2022-09-01T11:38:28;0.70;;;0.30;;
13204;SDS011;6667;52.634;9.226;2022-09-01T11:41:03;0.70;;;0.40;;
13204;SDS011;6667;52.634;9.226;2022-09-01T11:43:29;0.75;;;0.52;;
13204;SDS011;6667;52.634;9.226;2022-09-01T11:46:00;0.40;;;0.40;;
13204;SDS011;6667;52.634;9.226;2022-09-01T11:48:35;4.30;;;0.63;;
13204;SDS011;6667;52.634;9.226;2022-09-01T11:51:02;0.63;;;0.47;;
13204;SDS011;6667;52.634;9.226;2022-09-01T11:53:29;3.13;;;0.38;;
13204;SDS011;6667;52.634;9.226;2022-09-01T11:56:10;0.22;;;0.20;;
13204;SDS011;6667;52.634;9.226;2022-09-01T11:58:38;0.75;;;0.38;;
13204;SDS011;6667;52.634;9.226;2022-09-01T12:01:14;0.77;;;0.50;;
13204;SDS011;6667;52.634;9.226;2022-09-01T12:03:43;0.55;;;0.38;;
13204;SDS011;6667;52.634;9.226;2022-09-01T12:06:11;0.35;;;0.35;;
13204;SDS011;6667;52.634;9.226;2022-09-01T12:08:50;3.85;;;0.68;;
13204;SDS011;6667;52.634;9.226;2022-09-01T12:11:20;1.52;;;0.57;;
13204;SDS011;6667;52.634;9.226;2022-09-01T12:13:54;2.30;;;0.55;;
13204;SDS011;6667;52.634;9.226;2022-09-01T12:16:24;1.10;;;0.70;;
13204;SDS011;6667;52.634;9.226;2022-09-01T12:18:52;1.65;;;0.47;;
13204;SDS011;6667;52.634;9.226;2022-09-01T12:21:21;0.55;;;0.40;;
13204;SDS011;6667;52.634;9.226;2022-09-01T12:23:50;0.30;;;0.30;;
13204;SDS011;6667;52.634;9.226;2022-09-01T12:26:18;3.78;;;0.80;;
13204;SDS011;6667;52.634;9.226;2022-09-01T12:28:47;2.58;;;0.75;;
13204;SDS011;6667;52.634;9.226;2022-09-01T12:31:15;1.35;;;0.70;;
13204;SDS011;6667;52.634;9.226;2022-09-01T12:33:45;2.63;;;0.82;;
13204;SDS011;6667;52.634;9.226;2022-09-01T12:36:13;0.80;;;0.30;;
13204;SDS011;6667;52.634;9.226;2022-09-01T12:38:45;3.35;;;0.60;;
13204;SDS011;6667;52.634;9.226;2022-09-01T12:41:22;1.88;;;0.50;;
13204;SDS011;6667;52.634;9.226;2022-09-01T12:43:56;3.92;;;0.45;;
13204;SDS011;6667;52.634;9.226;2022-09-01T12:46:53;1.95;;;0.47;;
13204;SDS011;6667;52.634;9.226;2022-09-01T12:49:23;0.47;;;0.40;;
13204;SDS011;6667;52.634;9.226;2022-09-01T12:52:04;0.82;;;0.32;;
13204;SDS011;6667;52.634;9.226;2022-09-01T12:54:35;0.45;;;0.45;;
13204;SDS011;6667;52.634;9.226;2022-09-01T12:57:02;1.30;;;0.40;;
13204;SDS011;6667;52.634;9.226;2022-09-01T12:59:29;1.02;;;0.47;;
13204;SDS011;6667;52.634;9.226;2022-09-01T13:01:56;1.15;;;0.52;;
13204;SDS011;6667;52.634;9.226;2022-09-01T13:04:26;1.67;;;0.40;;
13204;SDS011;6667;52.634;9.226;2022-09-01T13:06:55;1.60;;;0.65;;
13204;SDS011;6667;52.634;9.226;2022-09-01T13:09:26;0.52;;;0.40;;
13204;SDS011;6667;52.634;9.226;2022-09-01T13:12:07;0.95;;;0.40;;
13204;SDS011;6667;52.634;9.226;2022-09-01T13:14:41;0.57;;;0.43;;
13204;SDS011;6667;52.634;9.226;2022-09-01T13:17:07;1.85;;;0.30;;
13204;SDS011;6667;52.634;9.226;2022-09-01T13:19:35;1.77;;;0.50;;
13204;SDS011;6667;52.634;9.226;2022-09-01T13:22:03;1.08;;;0.35;;
13204;SDS011;6667;52.634;9.226;2022-09-01T13:24:31;0.57;;;0.45;;
13204;SDS011;6667;52.634;9.226;2022-09-01T13:26:57;0.90;;;0.50;;
13204;SDS011;6667;52.634;9.226;2022-09-01T13:29:24;0.35;;;0.35;;
13204;SDS011;6667;52.634;9.226;2022-09-01T13:31:51;1.58;;;0.30;;
13204;SDS011;6667;52.634;9.226;2022-09-01T13:34:18;0.47;;;0.47;;
13204;SDS011;6667;52.634;9.226;2022-09-01T13:36:45;0.38;;;0.38;;
13204;SDS011;6667;52.634;9.226;2022-09-01T13:39:12;1.05;;;0.60;;
13204;SDS011;6667;52.634;9.226;2022-09-01T13:41:39;1.38;;;0.47;;
13204;SDS011;6667;52.634;9.226;2022-09-01T13:44:05;0.82;;;0.52;;
13204;SDS011;6667;52.634;9.226;2022-09-01T13:46:35;1.88;;;0.50;;
13204;SDS011;6667;52.634;9.226;2022-09-01T13:49:02;2.13;;;0.40;;
13204;SDS011;6667;52.634;9.226;2022-09-01T13:51:28;0.30;;;0.30;;
13204;SDS011;6667;52.634;9.226;2022-09-01T13:53:56;0.40;;;0.30;;
13204;SDS011;6667;52.634;9.226;2022-09-01T13:56:23;1.80;;;0.63;;
13204;SDS011;6667;52.634;9.226;2022-09-01T13:58:50;0.98;;;0.40;;
13204;SDS011;6667;52.634;9.226;2022-09-01T14:01:16;0.82;;;0.45;;
13204;SDS011;6667;52.634;9.226;2022-09-01T14:03:43;1.17;;;0.52;;
13204;SDS011;6667;52.634;9.226;2022-09-01T14:06:10;2.10;;;0.50;;
13204;SDS011;6667;52.634;9.226;2022-09-01T14:08:36;1.02;;;0.40;;
13204;SDS011;6667;52.634;9.226;2022-09-01T14:11:04;0.65;;;0.65;;
13204;SDS011;6667;52.634;9.226;2022-09-01T14:13:31;1.60;;;0.30;;
13204;SDS011;6667;52.634;9.226;2022-09-01T14:15:59;0.40;;;0.40;;
13204;SDS011;6667;52.634;9.226;2022-09-01T14:18:26;1.60;;;0.40;;
13204;SDS011;6667;52.634;9.226;2022-09-01T14:20:56;1.42;;;0.50;;
13204;SDS011;6667;52.634;9.226;2022-09-01T14:23:25;3.67;;;0.45;;
13204;SDS011;6667;52.634;9.226;2022-09-01T14:25:52;3.53;;;0.43;;
13204;SDS011;6667;52.634;9.226;2022-09-01T14:28:21;1.95;;;0.50;;
13204;SDS011;6667;52.634;9.226;2022-09-01T14:30:48;1.15;;;0.25;;
13204;SDS011;6667;52.634;9.226;2022-09-01T14:33:15;0.85;;;0.40;;
13204;SDS011;6667;52.634;9.226;2022-09-01T14:35:44;0.98;;;0.50;;
13204;SDS011;6667;52.634;9.226;2022-09-01T14:38:12;0.45;;;0.45;;
13204;SDS011;6667;52.634;9.226;2022-09-01T14:40:40;0.82;;;0.40;;
13204;SDS011;6667;52.634;9.226;2022-09-01T14:43:08;1.58;;;0.57;;
13204;SDS011;6667;52.634;9.226;2022-09-01T14:45:39;0.65;;;0.35;;
13204;SDS011;6667;52.634;9.226;2022-09-01T14:48:08;1.35;;;0.63;;
13204;SDS011;6667;52.634;9.226;2022-09-01T14:50:38;0.40;;;0.40;;
13204;SDS011;6667;52.634;9.226;2022-09-01T14:53:06;2.65;;;0.50;;
13204;SDS011;6667;52.634;9.226;2022-09-01T14:55:33;1.77;;;0.50;;
13204;SDS011;6667;52.634;9.226;2022-09-01T14:58:00;2.45;;;0.40;;
13204;SDS011;6667;52.634;9.226;2022-09-01T15:00:27;1.05;;;0.50;;
13204;SDS011;6667;52.634;9.226;2022-09-01T15:02:56;3.20;;;0.50;;
13204;SDS011;6667;52.634;9.226;2022-09-01T15:05:23;1.95;;;0.43;;
13204;SDS011;6667;52.634;9.226;2022-09-01T15:07:50;0.60;;;0.60;;
13204;SDS011;6667;52.634;9.226;2022-09-01T15:10:18;2.42;;;0.60;;
13204;SDS011;6667;52.634;9.226;2022-09-01T15:12:47;0.90;;;0.40;;
13204;SDS011;6667;52.634;9.226;2022-09-01T15:15:14;0.77;;;0.50;;
13204;SDS011;6667;52.634;9.226;2022-09-01T15:17:42;1.00;;;0.30;;
13204;SDS011;6667;52.634;9.226;2022-09-01T15:20:10;0.30;;;0.30;;
13204;SDS011;6667;52.634;9.226;2022-09-01T15:22:54;0.63;;;0.63;;
13204;SDS011;6667;52.634;9.226;2022-09-01T15:25:21;0.68;;;0.40;;
13204;SDS011;6667;52.634;9.226;2022-09-01T15:27:48;1.08;;;0.40;;
13204;SDS011;6667;52.634;9.226;2022-09-01T15:30:15;0.32;;;0.30;;
13204;SDS011;6667;52.634;9.226;2022-09-01T15:32:43;0.57;;;0.57;;
13204;SDS011;6667;52.634;9.226;2022-09-01T15:35:12;2.10;;;0.60;;
13204;SDS011;6667;52.634;9.226;2022-09-01T15:37:39;0.75;;;0.50;;
13204;SDS011;6667;52.634;9.226;2022-09-01T15:40:07;2.72;;;0.55;;
13204;SDS011;6667;52.634;9.226;2022-09-01T15:42:34;2.38;;;0.45;;
13204;SDS011;6667;52.634;9.226;2022-09-01T15:45:02;2.10;;;0.50;;
13204;SDS011;6667;52.634;9.226;2022-09-01T15:47:31;0.77;;;0.40;;
13204;SDS011;6667;52.634;9.226;2022-09-01T15:49:58;2.80;;;0.50;;
13204;SDS011;6667;52.634;9.226;2022-09-01T15:52:26;0.38;;;0.35;;
13204;SDS011;6667;52.634;9.226;2022-09-01T15:54:54;0.73;;;0.60;;
13204;SDS011;6667;52.634;9.226;2022-09-01T15:57:20;0.32;;;0.30;;
13204;SDS011;6667;52.634;9.226;2022-09-01T15:59:47;1.15;;;0.50;;
13204;SDS011;6667;52.634;9.226;2022-09-01T16:02:14;2.35;;;0.47;;
13204;SDS011;6667;52.634;9.226;2022-09-01T16:04:41;1.63;;;0.40;;
13204;SDS011;6667;52.634;9.226;2022-09-01T16:07:08;1.45;;;0.70;;
13204;SDS011;6667;52.634;9.226;2022-09-01T16:09:36;0.30;;;0.30;;
13204;SDS011;6667;52.634;9.226;2022-09-01T16:12:02;0.43;;;0.30;;
13204;SDS011;6667;52.634;9.226;2022-09-01T16:14:30;0.88;;;0.40;;
13204;SDS011;6667;52.634;9.226;2022-09-01T16:16:58;0.70;;;0.40;;
13204;SDS011;6667;52.634;9.226;2022-09-01T16:19:31;2.55;;;0.45;;
13204;SDS011;6667;52.634;9.226;2022-09-01T16:22:09;1.30;;;0.50;;
13204;SDS011;6667;52.634;9.226;2022-09-01T16:24:43;0.75;;;0.60;;
13204;SDS011;6667;52.634;9.226;2022-09-01T16:27:11;0.32;;;0.32;;
13204;SDS011;6667;52.634;9.226;2022-09-01T16:29:41;0.75;;;0.47;;
13204;SDS011;6667;52.634;9.226;2022-09-01T16:32:11;1.05;;;0.63;;
13204;SDS011;6667;52.634;9.226;2022-09-01T16:34:39;1.42;;;0.57;;
13204;SDS011;6667;52.634;9.226;2022-09-01T16:37:12;0.50;;;0.50;;
13204;SDS011;6667;52.634;9.226;2022-09-01T16:39:48;1.05;;;0.57;;
13204;SDS011;6667;52.634;9.226;2022-09-01T16:42:24;1.27;;;0.55;;
13204;SDS011;6667;52.634;9.226;2022-09-01T16:45:00;3.72;;;0.60;;
13204;SDS011;6667;52.634;9.226;2022-09-01T16:47:38;1.38;;;0.35;;
13204;SDS011;6667;52.634;9.226;2022-09-01T16:50:14;0.55;;;0.47;;
13204;SDS011;6667;52.634;9.226;2022-09-01T16:52:54;0.77;;;0.50;;
13204;SDS011;6667;52.634;9.226;2022-09-01T16:55:35;0.45;;;0.43;;
13204;SDS011;6667;52.634;9.226;2022-09-01T16:58:08;0.57;;;0.55;;
13204;SDS011;6667;52.634;9.226;2022-09-01T17:00:44;2.70;;;0.43;;
13204;SDS011;6667;52.634;9.226;2022-09-01T17:03:17;0.90;;;0.43;;
13204;SDS011;6667;52.634;9.226;2022-09-01T17:05:52;1.15;;;0.45;;
13204;SDS011;6667;52.634;9.226;2022-09-01T17:08:20;2.00;;;0.45;;
13204;SDS011;6667;52.634;9.226;2022-09-01T17:10:52;0.52;;;0.40;;
13204;SDS011;6667;52.634;9.226;2022-09-01T17:13:22;0.30;;;0.30;;
13204;SDS011;6667;52.634;9.226;2022-09-01T17:15:56;0.70;;;0.40;;
13204;SDS011;6667;52.634;9.226;2022-09-01T17:18:33;2.47;;;0.90;;
13204;SDS011;6667;52.634;9.226;2022-09-01T17:21:06;0.68;;;0.60;;
13204;SDS011;6667;52.634;9.226;2022-09-01T17:23:37;1.30;;;0.77;;
13204;SDS011;6667;52.634;9.226;2022-09-01T17:26:11;1.27;;;0.38;;
13204;SDS011;6667;52.634;9.226;2022-09-01T17:28:44;1.65;;;0.50;;
13204;SDS011;6667;52.634;9.226;2022-09-01T17:31:20;1.63;;;0.60;;
13204;SDS011;6667;52.634;9.226;2022-09-01T17:34:00;2.05;;;0.60;;
13204;SDS011;6667;52.634;9.226;2022-09-01T17:36:38;2.28;;;0.77;;
13204;SDS011;6667;52.634;9.226;2022-09-01T17:39:16;0.80;;;0.68;;
13204;SDS011;6667;52.634;9.226;2022-09-01T17:41:54;2.67;;;0.60;;
13204;SDS011;6667;52.634;9.226;2022-09-01T17:44:25;1.23;;;0.88;;
13204;SDS011;6667;52.634;9.226;2022-09-01T17:47:02;0.80;;;0.47;;
13204;SDS011;6667;52.634;9.226;2022-09-01T17:49:37;1.20;;;0.63;;
13204;SDS011;6667;52.634;9.226;2022-09-01T17:52:11;1.20;;;0.60;;
13204;SDS011;6667;52.634;9.226;2022-09-01T17:54:43;0.88;;;0.60;;
13204;SDS011;6667;52.634;9.226;2022-09-01T17:57:19;1.65;;;0.70;;
13204;SDS011;6667;52.634;9.226;2022-09-01T17:59:52;2.40;;;0.60;;
13204;SDS011;6667;52.634;9.226;2022-09-01T18:02:35;0.60;;;0.45;;
13204;SDS011;6667;52.634;9.226;2022-09-01T18:05:16;1.92;;;0.75;;
13204;SDS011;6667;52.634;9.226;2022-09-01T18:07:48;0.60;;;0.60;;
13204;SDS011;6667;52.634;9.226;2022-09-01T18:10:23;0.93;;;0.50;;
13204;SDS011;6667;52.634;9.226;2022-09-01T18:12:57;2.72;;;0.80;;
13204;SDS011;6667;52.634;9.226;2022-09-01T18:15:26;0.45;;;0.45;;
13204;SDS011;6667;52.634;9.226;2022-09-01T18:17:59;3.35;;;0.70;;
13204;SDS011;6667;52.634;9.226;2022-09-01T18:20:31;1.88;;;0.57;;
13204;SDS011;6667;52.634;9.226;2022-09-01T18:23:03;1.17;;;0.57;;
13204;SDS011;6667;52.634;9.226;2022-09-01T18:25:35;2.88;;;0.90;;
13204;SDS011;6667;52.634;9.226;2022-09-01T18:28:05;0.73;;;0.40;;
13204;SDS011;6667;52.634;9.226;2022-09-01T18:30:34;0.98;;;0.52;;
13204;SDS011;6667;52.634;9.226;2022-09-01T18:33:13;1.42;;;0.47;;
13204;SDS011;6667;52.634;9.226;2022-09-01T18:35:51;0.70;;;0.55;;
13204;SDS011;6667;52.634;9.226;2022-09-01T18:38:27;0.65;;;0.50;;
13204;SDS011;6667;52.634;9.226;2022-09-01T18:41:12;2.83;;;0.50;;
13204;SDS011;6667;52.634;9.226;2022-09-01T18:43:51;1.48;;;0.50;;
13204;SDS011;6667;52.634;9.226;2022-09-01T18:46:27;2.35;;;0.52;;
13204;SDS011;6667;52.634;9.226;2022-09-01T18:49:01;1.75;;;0.60;;
13204;SDS011;6667;52.634;9.226;2022-09-01T18:51:39;1.27;;;0.60;;
13204;SDS011;6667;52.634;9.226;2022-09-01T18:54:20;2.55;;;0.70;;
13204;SDS011;6667;52.634;9.226;2022-09-01T18:56:53;1.67;;;0.60;;
13204;SDS011;6667;52.634;9.226;2022-09-01T18:59:31;1.05;;;0.50;;
13204;SDS011;6667;52.634;9.226;2022-09-01T19:02:14;0.60;;;0.60;;
13204;SDS011;6667;52.634;9.226;2022-09-01T19:04:51;2.65;;;0.80;;
13204;SDS011;6667;52.634;9.226;2022-09-01T19:07:23;2.55;;;0.98;;
13204;SDS011;6667;52.634;9.226;2022-09-01T19:09:57;0.75;;;0.43;;
13204;SDS011;6667;52.634;9.226;2022-09-01T19:12:29;5.78;;;0.77;;
13204;SDS011;6667;52.634;9.226;2022-09-01T19:15:06;2.90;;;0.63;;
13204;SDS011;6667;52.634;9.226;2022-09-01T19:17:43;1.65;;;0.60;;
13204;SDS011;6667;52.634;9.226;2022-09-01T19:20:23;1.13;;;0.50;;
13204;SDS011;6667;52.634;9.226;2022-09-01T19:23:09;1.13;;;0.52;;
13204;SDS011;6667;52.634;9.226;2022-09-01T19:25:39;1.70;;;0.68;;
13204;SDS011;6667;52.634;9.226;2022-09-01T19:28:12;0.45;;;0.38;;
13204;SDS011;6667;52.634;9.226;2022-09-01T19:30:45;3.75;;;0.52;;
13204;SDS011;6667;52.634;9.226;2022-09-01T19:33:15;0.60;;;0.60;;
13204;SDS011;6667;52.634;9.226;2022-09-01T19:35:47;3.10;;;0.70;;
13204;SDS011;6667;52.634;9.226;2022-09-01T19:38:18;1.65;;;0.80;;
13204;SDS011;6667;52.634;9.226;2022-09-01T19:40:51;3.13;;;0.57;;
13204;SDS011;6667;52.634;9.226;2022-09-01T19:43:20;2.40;;;0.70;;
13204;SDS011;6667;52.634;9.226;2022-09-01T19:45:52;0.65;;;0.50;;
13204;SDS011;6667;52.634;9.226;2022-09-01T19:48:25;0.68;;;0.65;;
13204;SDS011;6667;52.634;9.226;2022-09-01T19:50:58;5.35;;;1.15;;
13204;SDS011;6667;52.634;9.226;2022-09-01T19:53:32;0.88;;;0.40;;
13204;SDS011;6667;52.634;9.226;2022-09-01T19:56:05;4.78;;;0.80;;
13204;SDS011;6667;52.634;9.226;2022-09-01T19:58:39;1.42;;;0.50;;
13204;SDS011;6667;52.634;9.226;2022-09-01T20:01:13;3.35;;;0.52;;
13204;SDS011;6667;52.634;9.226;2022-09-01T20:03:43;1.27;;;0.70;;